UKV6167 NZWN-YSSY
Flight info
| Callsign | UKV6167 |
|---|---|
| Flight time | 3h 3m |
| Altitude | 36000 |
| Route | TANEN M636 PLUGA DCT RIKNI DCT MARLN |
| Aircraft | A320/M-SDE3FGHIRWY/LB1 |
Departure
| Time | 2026-04-25 22:57 |
|---|---|
| Airport | Wellington International Airport (NZWN) |
Arrival
| Time | 2026-04-26 02:00 |
|---|---|
| Airport | Sydney Kingsford Smith International Airport (YSSY) |
| Time | Latitude | Longitude | Altitude | Speed | Heading |
|---|---|---|---|---|---|
| 2026-04-25 22:30 | -41.32978 | 174.80981 | 17 ft | 0 kts | 153° |
| 2026-04-25 22:37 | -41.32962 | 174.80970 | 17 ft | 3 kts | 153° |
| 2026-04-25 22:37 | -41.32947 | 174.80960 | 16 ft | 3 kts | 158° |
| 2026-04-25 22:37 | -41.32929 | 174.80955 | 16 ft | 3 kts | 195° |
| 2026-04-25 22:37 | -41.32914 | 174.80965 | 18 ft | 2 kts | 231° |
| 2026-04-25 22:38 | -41.32906 | 174.80985 | 19 ft | 2 kts | 260° |
| 2026-04-25 22:38 | -41.32904 | 174.80997 | 17 ft | 0 kts | 260° |
| 2026-04-25 22:47 | -41.32905 | 174.80993 | 17 ft | 2 kts | 259° |
| 2026-04-25 22:47 | -41.32911 | 174.80953 | 16 ft | 5 kts | 257° |
| 2026-04-25 22:47 | -41.32920 | 174.80907 | 16 ft | 5 kts | 249° |
| 2026-04-25 22:48 | -41.32944 | 174.80881 | 16 ft | 5 kts | 205° |
| 2026-04-25 22:48 | -41.32962 | 174.80850 | 16 ft | 3 kts | 260° |
| 2026-04-25 22:48 | -41.32967 | 174.80838 | 18 ft | 0 kts | 242° |
| 2026-04-25 22:49 | -41.32967 | 174.80837 | 18 ft | 0 kts | 241° |
| 2026-04-25 22:49 | -41.32976 | 174.80817 | 17 ft | 5 kts | 241° |
| 2026-04-25 22:50 | -41.33018 | 174.80795 | 18 ft | 10 kts | 182° |
| 2026-04-25 22:50 | -41.33113 | 174.80802 | 18 ft | 17 kts | 185° |
| 2026-04-25 22:50 | -41.33246 | 174.80781 | 19 ft | 15 kts | 187° |
| 2026-04-25 22:50 | -41.33280 | 174.80777 | 19 ft | 1 kts | 184° |
| 2026-04-25 22:51 | -41.33308 | 174.80778 | 19 ft | 7 kts | 178° |
| 2026-04-25 22:51 | -41.33382 | 174.80778 | 18 ft | 14 kts | 181° |
| 2026-04-25 22:51 | -41.33496 | 174.80767 | 15 ft | 11 kts | 186° |
| 2026-04-25 22:51 | -41.33513 | 174.80765 | 15 ft | 0 kts | 188° |
| 2026-04-25 22:55 | -41.33520 | 174.80763 | 15 ft | 8 kts | 191° |
| 2026-04-25 22:55 | -41.33565 | 174.80620 | 13 ft | 23 kts | 317° |
| 2026-04-25 22:56 | -41.33469 | 174.80628 | 13 ft | 9 kts | 15° |
| 2026-04-25 22:56 | -41.33420 | 174.80640 | 14 ft | 6 kts | 6° |
| 2026-04-25 22:56 | -41.33272 | 174.80652 | 19 ft | 55 kts | 3° |
| 2026-04-25 22:56 | -41.32640 | 174.80697 | 23 ft | 122 kts | 4° |
| 2026-04-25 22:57 | -41.31685 | 174.80794 | 471 ft | 136 kts | 6° |
| 2026-04-25 22:57 | -41.30734 | 174.80881 | 1144 ft | 146 kts | 2° |
| 2026-04-25 22:57 | -41.29685 | 174.80971 | 1794 ft | 155 kts | 358° |
| 2026-04-25 22:57 | -41.28594 | 174.80915 | 2547 ft | 159 kts | 347° |
| 2026-04-25 22:58 | -41.27482 | 174.80714 | 3181 ft | 171 kts | 351° |
| 2026-04-25 22:58 | -41.26244 | 174.80717 | 3693 ft | 178 kts | 348° |
| 2026-04-25 22:58 | -41.25061 | 174.80452 | 4203 ft | 175 kts | 337° |
| 2026-04-25 22:58 | -41.23913 | 174.79870 | 4653 ft | 179 kts | 333° |
| 2026-04-25 22:59 | -41.22729 | 174.79341 | 5208 ft | 182 kts | 336° |
| 2026-04-25 22:59 | -41.21464 | 174.78881 | 5641 ft | 194 kts | 340° |
| 2026-04-25 22:59 | -41.20098 | 174.78507 | 6146 ft | 207 kts | 344° |
| 2026-04-25 22:59 | -41.18621 | 174.78225 | 6611 ft | 223 kts | 348° |
| 2026-04-25 23:00 | -41.16998 | 174.78030 | 6931 ft | 246 kts | 351° |
| 2026-04-25 23:00 | -41.15175 | 174.77914 | 7095 ft | 280 kts | 354° |
| 2026-04-25 23:00 | -41.13104 | 174.77827 | 7225 ft | 303 kts | 349° |
| 2026-04-25 23:00 | -41.11084 | 174.77264 | 8298 ft | 294 kts | 336° |
| 2026-04-25 23:01 | -41.09277 | 174.76044 | 9129 ft | 292 kts | 320° |
| 2026-04-25 23:01 | -41.07816 | 174.74231 | 9915 ft | 285 kts | 304° |
| 2026-04-25 23:01 | -41.06915 | 174.71916 | 10037 ft | 281 kts | 287° |
| 2026-04-25 23:01 | -41.06267 | 174.69490 | 10024 ft | 279 kts | 287° |
| 2026-04-25 23:02 | -41.05621 | 174.67074 | 10024 ft | 278 kts | 287° |
| 2026-04-25 23:02 | -41.04977 | 174.64665 | 10026 ft | 277 kts | 287° |
| 2026-04-25 23:02 | -41.04329 | 174.62258 | 10028 ft | 277 kts | 289° |
| 2026-04-25 23:02 | -41.03550 | 174.59924 | 10030 ft | 277 kts | 293° |
| 2026-04-25 23:03 | -41.02739 | 174.57649 | 10032 ft | 277 kts | 290° |
| 2026-04-25 23:03 | -41.02121 | 174.55240 | 10033 ft | 275 kts | 281° |
| 2026-04-25 23:03 | -41.01863 | 174.52750 | 10031 ft | 272 kts | 270° |
| 2026-04-25 23:03 | -41.01886 | 174.50238 | 10024 ft | 274 kts | 268° |
| 2026-04-25 23:04 | -41.01932 | 174.47718 | 10024 ft | 273 kts | 267° |
| 2026-04-25 23:04 | -41.01966 | 174.46027 | 10023 ft | 272 kts | 267° |
| 2026-04-25 23:04 | -41.02035 | 174.42706 | 10024 ft | 273 kts | 267° |
| 2026-04-25 23:04 | -41.02086 | 174.40190 | 10024 ft | 273 kts | 267° |
| 2026-04-25 23:05 | -41.02120 | 174.38491 | 10026 ft | 274 kts | 267° |
| 2026-04-25 23:05 | -41.02168 | 174.35969 | 10023 ft | 273 kts | 267° |
| 2026-04-25 23:05 | -41.02228 | 174.32630 | 10024 ft | 273 kts | 267° |
| 2026-04-25 23:05 | -41.02259 | 174.30931 | 10023 ft | 273 kts | 267° |
| 2026-04-25 23:06 | -41.02306 | 174.28407 | 10008 ft | 275 kts | 267° |
| 2026-04-25 23:06 | -41.02354 | 174.25858 | 10021 ft | 278 kts | 267° |
| 2026-04-25 23:06 | -41.02414 | 174.22456 | 10022 ft | 279 kts | 267° |
| 2026-04-25 23:06 | -41.02441 | 174.20721 | 10027 ft | 279 kts | 267° |
| 2026-04-25 23:07 | -41.02480 | 174.18150 | 10026 ft | 280 kts | 267° |
| 2026-04-25 23:07 | -41.02522 | 174.15583 | 10023 ft | 279 kts | 267° |
| 2026-04-25 23:07 | -41.02516 | 174.13010 | 10028 ft | 280 kts | 272° |
| 2026-04-25 23:07 | -41.02373 | 174.10411 | 10596 ft | 284 kts | 272° |
| 2026-04-25 23:08 | -41.02231 | 174.07798 | 11428 ft | 285 kts | 272° |
| 2026-04-25 23:08 | -41.02086 | 174.05095 | 11776 ft | 306 kts | 272° |
| 2026-04-25 23:08 | -41.01932 | 174.02177 | 11964 ft | 329 kts | 272° |
| 2026-04-25 23:08 | -41.01766 | 173.99091 | 12394 ft | 341 kts | 272° |
| 2026-04-25 23:09 | -41.01593 | 173.95939 | 13055 ft | 345 kts | 272° |
| 2026-04-25 23:09 | -41.01417 | 173.92754 | 13756 ft | 348 kts | 271° |
| 2026-04-25 23:09 | -41.01240 | 173.89586 | 14387 ft | 351 kts | 272° |
| 2026-04-25 23:09 | -41.01058 | 173.86346 | 15013 ft | 354 kts | 271° |
| 2026-04-25 23:10 | -41.00875 | 173.83082 | 15639 ft | 357 kts | 271° |
| 2026-04-25 23:10 | -41.00646 | 173.79793 | 16254 ft | 361 kts | 276° |
| 2026-04-25 23:10 | -41.00196 | 173.76503 | 16868 ft | 365 kts | 277° |
| 2026-04-25 23:10 | -40.99731 | 173.73189 | 17470 ft | 368 kts | 277° |
| 2026-04-25 23:11 | -40.99262 | 173.69849 | 18053 ft | 370 kts | 277° |
| 2026-04-25 23:11 | -40.98791 | 173.66483 | 18602 ft | 373 kts | 277° |
| 2026-04-25 23:11 | -40.98317 | 173.63096 | 19094 ft | 376 kts | 277° |
| 2026-04-25 23:11 | -40.97838 | 173.59685 | 19593 ft | 378 kts | 277° |
| 2026-04-25 23:12 | -40.97356 | 173.56251 | 20073 ft | 380 kts | 277° |
| 2026-04-25 23:12 | -40.96869 | 173.52800 | 20577 ft | 383 kts | 277° |
| 2026-04-25 23:12 | -40.96379 | 173.49333 | 21063 ft | 385 kts | 277° |
| 2026-04-25 23:12 | -40.95884 | 173.45843 | 21537 ft | 387 kts | 277° |
| 2026-04-25 23:13 | -40.95382 | 173.42333 | 21998 ft | 389 kts | 277° |
| 2026-04-25 23:13 | -40.94876 | 173.38802 | 22457 ft | 392 kts | 277° |
| 2026-04-25 23:13 | -40.94368 | 173.35251 | 22912 ft | 394 kts | 277° |
| 2026-04-25 23:13 | -40.93858 | 173.31683 | 23363 ft | 396 kts | 277° |
| 2026-04-25 23:14 | -40.93342 | 173.28083 | 23731 ft | 400 kts | 278° |
| 2026-04-25 23:14 | -40.92820 | 173.24451 | 24072 ft | 403 kts | 277° |
| 2026-04-25 23:14 | -40.92293 | 173.20798 | 24433 ft | 405 kts | 277° |
| 2026-04-25 23:14 | -40.91762 | 173.17128 | 24790 ft | 407 kts | 277° |
| 2026-04-25 23:15 | -40.91226 | 173.13445 | 25127 ft | 409 kts | 277° |
| 2026-04-25 23:15 | -40.90687 | 173.09742 | 25481 ft | 411 kts | 277° |
| 2026-04-25 23:15 | -40.90146 | 173.06020 | 25815 ft | 413 kts | 277° |
| 2026-04-25 23:15 | -40.89602 | 173.02283 | 26145 ft | 415 kts | 277° |
| 2026-04-25 23:16 | -40.89054 | 172.98528 | 26503 ft | 417 kts | 277° |
| 2026-04-25 23:16 | -40.88502 | 172.94755 | 26823 ft | 419 kts | 277° |
| 2026-04-25 23:16 | -40.87946 | 172.90965 | 27156 ft | 421 kts | 277° |
| 2026-04-25 23:16 | -40.87387 | 172.87164 | 27492 ft | 423 kts | 277° |
| 2026-04-25 23:17 | -40.86822 | 172.83338 | 27822 ft | 425 kts | 277° |
| 2026-04-25 23:17 | -40.86255 | 172.79505 | 28142 ft | 426 kts | 277° |
| 2026-04-25 23:17 | -40.85684 | 172.75653 | 28450 ft | 428 kts | 277° |
| 2026-04-25 23:17 | -40.85110 | 172.71784 | 28744 ft | 430 kts | 277° |
| 2026-04-25 23:18 | -40.84529 | 172.67901 | 29018 ft | 432 kts | 277° |
| 2026-04-25 23:18 | -40.83945 | 172.64002 | 29307 ft | 433 kts | 277° |
| 2026-04-25 23:18 | -40.83356 | 172.60096 | 29562 ft | 435 kts | 277° |
| 2026-04-25 23:18 | -40.82765 | 172.56170 | 29821 ft | 437 kts | 277° |
| 2026-04-25 23:19 | -40.82172 | 172.52229 | 30111 ft | 439 kts | 277° |
| 2026-04-25 23:19 | -40.81578 | 172.48281 | 30451 ft | 438 kts | 277° |
| 2026-04-25 23:19 | -40.80984 | 172.44344 | 30808 ft | 437 kts | 277° |
| 2026-04-25 23:19 | -40.80389 | 172.40426 | 31197 ft | 435 kts | 278° |
| 2026-04-25 23:20 | -40.79797 | 172.36524 | 31581 ft | 433 kts | 278° |
| 2026-04-25 23:20 | -40.79206 | 172.32639 | 31930 ft | 431 kts | 277° |
| 2026-04-25 23:20 | -40.78616 | 172.28767 | 32262 ft | 430 kts | 278° |
| 2026-04-25 23:20 | -40.78034 | 172.24964 | 32636 ft | 428 kts | 278° |
| 2026-04-25 23:21 | -40.77436 | 172.21065 | 32984 ft | 427 kts | 278° |
| 2026-04-25 23:21 | -40.76845 | 172.17239 | 33326 ft | 425 kts | 278° |
| 2026-04-25 23:21 | -40.76262 | 172.13471 | 33664 ft | 424 kts | 278° |
| 2026-04-25 23:21 | -40.75671 | 172.09665 | 34006 ft | 423 kts | 278° |
| 2026-04-25 23:22 | -40.75080 | 172.05871 | 34320 ft | 422 kts | 278° |
| 2026-04-25 23:22 | -40.74490 | 172.02092 | 34609 ft | 421 kts | 278° |
| 2026-04-25 23:22 | -40.73904 | 171.98320 | 34898 ft | 419 kts | 278° |
| 2026-04-25 23:23 | -40.72738 | 171.90807 | 35453 ft | 417 kts | 278° |
| 2026-04-25 23:23 | -40.72154 | 171.87065 | 35710 ft | 416 kts | 278° |
| 2026-04-25 23:23 | -40.71568 | 171.83334 | 35964 ft | 415 kts | 278° |
| 2026-04-25 23:23 | -40.70983 | 171.79609 | 36175 ft | 415 kts | 278° |
| 2026-04-25 23:24 | -40.70397 | 171.75883 | 36231 ft | 415 kts | 278° |
| 2026-04-25 23:24 | -40.69221 | 171.68448 | 36233 ft | 414 kts | 278° |
| 2026-04-25 23:25 | -40.68036 | 171.61020 | 36239 ft | 415 kts | 278° |
| 2026-04-25 23:25 | -40.66851 | 171.53587 | 36237 ft | 415 kts | 278° |
| 2026-04-25 23:26 | -40.65657 | 171.46162 | 36238 ft | 415 kts | 278° |
| 2026-04-25 23:26 | -40.64465 | 171.38733 | 36240 ft | 415 kts | 278° |
| 2026-04-25 23:27 | -40.63272 | 171.31361 | 36254 ft | 415 kts | 278° |
| 2026-04-25 23:27 | -40.62065 | 171.23939 | 36245 ft | 414 kts | 278° |
| 2026-04-25 23:28 | -40.60858 | 171.16524 | 36243 ft | 415 kts | 279° |
| 2026-04-25 23:28 | -40.59642 | 171.09104 | 36244 ft | 415 kts | 279° |
| 2026-04-25 23:29 | -40.58419 | 171.01686 | 36253 ft | 415 kts | 279° |
| 2026-04-25 23:29 | -40.57195 | 170.94268 | 36254 ft | 415 kts | 279° |
| 2026-04-25 23:30 | -40.55967 | 170.86845 | 36252 ft | 415 kts | 279° |
| 2026-04-25 23:30 | -40.54735 | 170.79425 | 36255 ft | 416 kts | 279° |
| 2026-04-25 23:31 | -40.53494 | 170.72008 | 36272 ft | 415 kts | 279° |
| 2026-04-25 23:31 | -40.52245 | 170.64598 | 36268 ft | 415 kts | 279° |
| 2026-04-25 23:32 | -40.52118 | 170.63850 | 36267 ft | 415 kts | 279° |
| 2026-04-25 23:34 | -40.51939 | 170.62795 | 36267 ft | 415 kts | 279° |
| 2026-04-25 23:35 | -40.50657 | 170.55344 | 36274 ft | 415 kts | 280° |
| 2026-04-25 23:35 | -40.49175 | 170.48048 | 36260 ft | 417 kts | 282° |
| 2026-04-25 23:36 | -40.47535 | 170.40739 | 36263 ft | 417 kts | 283° |
| 2026-04-25 23:36 | -40.45894 | 170.33425 | 36264 ft | 417 kts | 282° |
| 2026-04-25 23:37 | -40.44289 | 170.26100 | 36272 ft | 417 kts | 282° |
| 2026-04-25 23:37 | -40.42695 | 170.18772 | 36279 ft | 417 kts | 282° |
| 2026-04-25 23:38 | -40.41095 | 170.11456 | 36280 ft | 417 kts | 282° |
| 2026-04-25 23:38 | -40.39479 | 170.04145 | 36275 ft | 417 kts | 283° |
| 2026-04-25 23:39 | -40.37854 | 169.96838 | 36283 ft | 417 kts | 283° |
| 2026-04-25 23:39 | -40.36235 | 169.89581 | 36276 ft | 417 kts | 283° |
| 2026-04-25 23:40 | -40.34611 | 169.82279 | 36279 ft | 417 kts | 282° |
| 2026-04-25 23:40 | -40.32983 | 169.74976 | 36279 ft | 417 kts | 283° |
| 2026-04-25 23:41 | -40.31345 | 169.67679 | 36283 ft | 417 kts | 283° |
| 2026-04-25 23:41 | -40.29697 | 169.60390 | 36286 ft | 417 kts | 283° |
| 2026-04-25 23:42 | -40.28048 | 169.53099 | 36289 ft | 417 kts | 283° |
| 2026-04-25 23:42 | -40.26402 | 169.45813 | 36293 ft | 417 kts | 283° |
| 2026-04-25 23:43 | -40.24747 | 169.38529 | 36274 ft | 418 kts | 283° |
| 2026-04-25 23:43 | -40.23073 | 169.31240 | 36281 ft | 418 kts | 283° |
| 2026-04-25 23:44 | -40.21408 | 169.23945 | 36284 ft | 419 kts | 283° |
| 2026-04-25 23:44 | -40.19738 | 169.16649 | 36281 ft | 419 kts | 283° |
| 2026-04-25 23:45 | -40.18050 | 169.09357 | 36285 ft | 419 kts | 283° |
| 2026-04-25 23:45 | -40.16358 | 169.02068 | 36288 ft | 419 kts | 283° |
| 2026-04-25 23:46 | -40.14667 | 168.94777 | 36294 ft | 419 kts | 283° |
| 2026-04-25 23:46 | -40.12982 | 168.87540 | 36296 ft | 419 kts | 283° |
| 2026-04-25 23:47 | -40.11283 | 168.80254 | 36293 ft | 419 kts | 283° |
| 2026-04-25 23:47 | -40.09587 | 168.72969 | 36296 ft | 419 kts | 283° |
| 2026-04-25 23:48 | -40.07874 | 168.65695 | 36285 ft | 419 kts | 284° |
| 2026-04-25 23:48 | -40.06157 | 168.58411 | 36289 ft | 420 kts | 284° |
| 2026-04-25 23:49 | -40.04438 | 168.51120 | 36293 ft | 421 kts | 284° |
| 2026-04-25 23:49 | -40.02707 | 168.43827 | 36296 ft | 421 kts | 284° |
| 2026-04-25 23:50 | -40.00972 | 168.36532 | 36305 ft | 421 kts | 284° |
| 2026-04-25 23:50 | -39.99237 | 168.29242 | 36295 ft | 421 kts | 284° |
| 2026-04-25 23:51 | -39.97491 | 168.21945 | 36299 ft | 422 kts | 284° |
| 2026-04-25 23:51 | -39.95739 | 168.14643 | 36302 ft | 422 kts | 284° |
| 2026-04-25 23:52 | -39.93995 | 168.07393 | 36308 ft | 422 kts | 284° |
| 2026-04-25 23:52 | -39.92231 | 168.00091 | 36312 ft | 422 kts | 284° |
| 2026-04-25 23:53 | -39.90463 | 167.92791 | 36309 ft | 423 kts | 284° |
| 2026-04-25 23:53 | -39.88690 | 167.85488 | 36313 ft | 423 kts | 284° |
| 2026-04-25 23:54 | -39.86907 | 167.78184 | 36316 ft | 423 kts | 285° |
| 2026-04-25 23:54 | -39.85112 | 167.70886 | 36319 ft | 424 kts | 285° |
| 2026-04-25 23:55 | -39.83324 | 167.63581 | 36321 ft | 424 kts | 285° |
| 2026-04-25 23:55 | -39.81832 | 167.57513 | 36312 ft | 424 kts | 285° |
| 2026-04-25 23:56 | -39.80028 | 167.50208 | 36321 ft | 424 kts | 285° |
| 2026-04-25 23:56 | -39.78215 | 167.42899 | 36311 ft | 426 kts | 285° |
| 2026-04-25 23:57 | -39.76401 | 167.35563 | 36316 ft | 427 kts | 285° |
| 2026-04-25 23:57 | -39.74565 | 167.28219 | 36321 ft | 428 kts | 285° |
| 2026-04-25 23:58 | -39.72735 | 167.20916 | 36320 ft | 428 kts | 285° |
| 2026-04-25 23:58 | -39.70901 | 167.13556 | 36321 ft | 429 kts | 285° |
| 2026-04-25 23:59 | -39.69056 | 167.06182 | 36328 ft | 430 kts | 285° |
| 2026-04-25 23:59 | -39.67193 | 166.98807 | 36331 ft | 430 kts | 285° |
| 2026-04-26 00:00 | -39.65321 | 166.91436 | 36342 ft | 430 kts | 286° |
| 2026-04-26 00:00 | -39.63447 | 166.84063 | 36338 ft | 430 kts | 286° |
| 2026-04-26 00:01 | -39.61575 | 166.76679 | 36340 ft | 431 kts | 286° |
| 2026-04-26 00:01 | -39.59693 | 166.69296 | 36341 ft | 432 kts | 286° |
| 2026-04-26 00:02 | -39.57793 | 166.61909 | 36348 ft | 432 kts | 286° |
| 2026-04-26 00:02 | -39.55911 | 166.54577 | 36349 ft | 432 kts | 286° |
| 2026-04-26 00:03 | -39.54019 | 166.47196 | 36341 ft | 432 kts | 286° |
| 2026-04-26 00:03 | -39.52118 | 166.39819 | 36343 ft | 432 kts | 286° |
| 2026-04-26 00:04 | -39.50205 | 166.32439 | 36348 ft | 432 kts | 286° |
| 2026-04-26 00:04 | -39.48283 | 166.25059 | 36352 ft | 433 kts | 286° |
| 2026-04-26 00:05 | -39.46363 | 166.17684 | 36356 ft | 432 kts | 286° |
| 2026-04-26 00:05 | -39.44440 | 166.10313 | 36345 ft | 433 kts | 287° |
| 2026-04-26 00:06 | -39.42505 | 166.02933 | 36350 ft | 433 kts | 287° |
| 2026-04-26 00:06 | -39.40563 | 165.95555 | 36352 ft | 434 kts | 287° |
| 2026-04-26 00:07 | -39.38616 | 165.88168 | 36348 ft | 434 kts | 287° |
| 2026-04-26 00:07 | -39.36659 | 165.80777 | 36344 ft | 435 kts | 287° |
| 2026-04-26 00:08 | -39.34702 | 165.73373 | 36341 ft | 436 kts | 287° |
| 2026-04-26 00:08 | -39.32740 | 165.66017 | 36344 ft | 436 kts | 287° |
| 2026-04-26 00:09 | -39.30757 | 165.58604 | 36351 ft | 437 kts | 287° |
| 2026-04-26 00:09 | -39.28770 | 165.51194 | 36352 ft | 437 kts | 287° |
| 2026-04-26 00:10 | -39.26786 | 165.43779 | 36357 ft | 437 kts | 287° |
| 2026-04-26 00:10 | -39.24792 | 165.36372 | 36358 ft | 437 kts | 287° |
| 2026-04-26 00:11 | -39.22791 | 165.28964 | 36360 ft | 437 kts | 287° |
| 2026-04-26 00:11 | -39.20787 | 165.21555 | 36367 ft | 438 kts | 287° |
| 2026-04-26 00:12 | -39.18780 | 165.14147 | 36368 ft | 438 kts | 287° |
| 2026-04-26 00:12 | -39.16767 | 165.06746 | 36367 ft | 438 kts | 288° |
| 2026-04-26 00:13 | -39.14743 | 164.99349 | 36358 ft | 438 kts | 288° |
| 2026-04-26 00:13 | -39.12716 | 164.91942 | 36362 ft | 439 kts | 288° |
| 2026-04-26 00:14 | -39.10695 | 164.84582 | 36367 ft | 439 kts | 288° |
| 2026-04-26 00:14 | -39.08653 | 164.77177 | 36372 ft | 439 kts | 287° |
| 2026-04-26 00:15 | -39.06608 | 164.69772 | 36364 ft | 439 kts | 288° |
| 2026-04-26 00:15 | -39.04553 | 164.62367 | 36369 ft | 440 kts | 288° |
| 2026-04-26 00:16 | -39.02503 | 164.54960 | 36371 ft | 440 kts | 288° |
| 2026-04-26 00:16 | -39.00437 | 164.47551 | 36376 ft | 440 kts | 288° |
| 2026-04-26 00:17 | -38.98361 | 164.40148 | 36379 ft | 440 kts | 288° |
| 2026-04-26 00:17 | -38.96291 | 164.32745 | 36367 ft | 440 kts | 288° |
| 2026-04-26 00:18 | -38.94206 | 164.25341 | 36367 ft | 441 kts | 288° |
| 2026-04-26 00:18 | -38.92115 | 164.17921 | 36370 ft | 442 kts | 288° |
| 2026-04-26 00:19 | -38.90019 | 164.10495 | 36372 ft | 443 kts | 288° |
| 2026-04-26 00:19 | -38.87915 | 164.03069 | 36381 ft | 443 kts | 288° |
| 2026-04-26 00:20 | -38.85811 | 163.95644 | 36379 ft | 443 kts | 288° |
| 2026-04-26 00:20 | -38.83695 | 163.88216 | 36379 ft | 443 kts | 289° |
| 2026-04-26 00:21 | -38.81565 | 163.80792 | 36380 ft | 444 kts | 288° |
| 2026-04-26 00:21 | -38.79444 | 163.73419 | 36386 ft | 444 kts | 288° |
| 2026-04-26 00:22 | -38.77313 | 163.65991 | 36382 ft | 444 kts | 288° |
| 2026-04-26 00:22 | -38.75176 | 163.58559 | 36370 ft | 445 kts | 288° |
| 2026-04-26 00:23 | -38.73027 | 163.51127 | 36370 ft | 445 kts | 289° |
| 2026-04-26 00:23 | -38.70864 | 163.43692 | 36371 ft | 446 kts | 289° |
| 2026-04-26 00:24 | -38.68704 | 163.36256 | 36379 ft | 446 kts | 289° |
| 2026-04-26 00:24 | -38.66537 | 163.28812 | 36376 ft | 446 kts | 289° |
| 2026-04-26 00:25 | -38.64367 | 163.21370 | 36380 ft | 447 kts | 289° |
| 2026-04-26 00:25 | -38.62200 | 163.13975 | 36384 ft | 447 kts | 289° |
| 2026-04-26 00:26 | -38.60014 | 163.06531 | 36385 ft | 447 kts | 289° |
| 2026-04-26 00:26 | -38.57819 | 162.99093 | 36387 ft | 447 kts | 289° |
| 2026-04-26 00:27 | -38.55547 | 162.91698 | 36382 ft | 447 kts | 290° |
| 2026-04-26 00:27 | -38.53229 | 162.84319 | 36381 ft | 448 kts | 290° |
| 2026-04-26 00:28 | -38.50916 | 162.76941 | 36381 ft | 448 kts | 291° |
| 2026-04-26 00:28 | -38.48607 | 162.69551 | 36380 ft | 448 kts | 290° |
| 2026-04-26 00:29 | -38.46294 | 162.62163 | 36382 ft | 448 kts | 291° |
| 2026-04-26 00:29 | -38.43970 | 162.54778 | 36384 ft | 449 kts | 291° |
| 2026-04-26 00:30 | -38.41643 | 162.47397 | 36385 ft | 449 kts | 291° |
| 2026-04-26 00:30 | -38.39313 | 162.40015 | 36388 ft | 449 kts | 291° |
| 2026-04-26 00:31 | -38.36978 | 162.32635 | 36395 ft | 449 kts | 291° |
| 2026-04-26 00:31 | -38.34657 | 162.25309 | 36395 ft | 449 kts | 291° |
| 2026-04-26 00:32 | -38.32296 | 162.17892 | 36392 ft | 449 kts | 291° |
| 2026-04-26 00:32 | -38.28775 | 162.06898 | 36401 ft | 449 kts | 291° |
| 2026-04-26 00:33 | -38.26413 | 161.99535 | 36402 ft | 449 kts | 291° |
| 2026-04-26 00:33 | -38.24047 | 161.92169 | 36406 ft | 450 kts | 291° |
| 2026-04-26 00:34 | -38.21672 | 161.84804 | 36409 ft | 450 kts | 291° |
| 2026-04-26 00:34 | -38.19296 | 161.77444 | 36413 ft | 450 kts | 291° |
| 2026-04-26 00:35 | -38.16915 | 161.70088 | 36415 ft | 450 kts | 291° |
| 2026-04-26 00:35 | -38.14533 | 161.62737 | 36414 ft | 450 kts | 291° |
| 2026-04-26 00:36 | -38.12144 | 161.55393 | 36409 ft | 450 kts | 291° |
| 2026-04-26 00:36 | -38.09749 | 161.48053 | 36408 ft | 450 kts | 291° |
| 2026-04-26 00:37 | -38.07347 | 161.40711 | 36407 ft | 451 kts | 292° |
| 2026-04-26 00:37 | -38.04940 | 161.33366 | 36406 ft | 451 kts | 292° |
| 2026-04-26 00:38 | -38.02525 | 161.26027 | 36411 ft | 451 kts | 292° |
| 2026-04-26 00:38 | -38.00104 | 161.18685 | 36404 ft | 451 kts | 292° |
| 2026-04-26 00:39 | -37.97677 | 161.11346 | 36406 ft | 451 kts | 292° |
| 2026-04-26 00:39 | -37.95249 | 161.04012 | 36408 ft | 452 kts | 292° |
| 2026-04-26 00:40 | -37.92814 | 160.96674 | 36410 ft | 452 kts | 292° |
| 2026-04-26 00:40 | -37.90371 | 160.89345 | 36413 ft | 452 kts | 292° |
| 2026-04-26 00:41 | -37.87945 | 160.82066 | 36407 ft | 452 kts | 292° |
| 2026-04-26 00:41 | -37.85496 | 160.74744 | 36404 ft | 452 kts | 292° |
| 2026-04-26 00:42 | -37.83041 | 160.67428 | 36401 ft | 452 kts | 292° |
| 2026-04-26 00:42 | -37.80580 | 160.60118 | 36401 ft | 452 kts | 292° |
| 2026-04-26 00:43 | -37.78116 | 160.52806 | 36402 ft | 452 kts | 292° |
| 2026-04-26 00:43 | -37.76047 | 160.46679 | 36402 ft | 452 kts | 292° |
| 2026-04-26 00:44 | -37.73165 | 160.38186 | 36402 ft | 453 kts | 292° |
| 2026-04-26 00:44 | -37.70682 | 160.30885 | 36402 ft | 453 kts | 292° |
| 2026-04-26 00:45 | -37.68612 | 160.24818 | 36401 ft | 453 kts | 292° |
| 2026-04-26 00:45 | -37.65707 | 160.16281 | 36399 ft | 453 kts | 293° |
| 2026-04-26 00:46 | -37.63210 | 160.08978 | 36400 ft | 453 kts | 293° |
| 2026-04-26 00:46 | -37.60702 | 160.01675 | 36399 ft | 454 kts | 293° |
| 2026-04-26 00:47 | -37.58203 | 159.94410 | 36398 ft | 455 kts | 293° |
| 2026-04-26 00:47 | -37.55680 | 159.87097 | 36403 ft | 455 kts | 293° |
| 2026-04-26 00:48 | -37.53154 | 159.79776 | 36402 ft | 456 kts | 293° |
| 2026-04-26 00:48 | -37.50621 | 159.72455 | 36403 ft | 456 kts | 293° |
| 2026-04-26 00:49 | -37.48507 | 159.66376 | 36406 ft | 456 kts | 293° |
| 2026-04-26 00:49 | -37.45962 | 159.59065 | 36407 ft | 456 kts | 293° |
| 2026-04-26 00:50 | -37.43410 | 159.51767 | 36400 ft | 456 kts | 294° |
| 2026-04-26 00:50 | -37.40855 | 159.44475 | 36398 ft | 455 kts | 294° |
| 2026-04-26 00:51 | -37.38303 | 159.37188 | 36394 ft | 455 kts | 294° |
| 2026-04-26 00:51 | -37.35747 | 159.29909 | 36395 ft | 455 kts | 294° |
| 2026-04-26 00:52 | -37.33178 | 159.22635 | 36392 ft | 455 kts | 294° |
| 2026-04-26 00:52 | -37.30605 | 159.15360 | 36393 ft | 456 kts | 294° |
| 2026-04-26 00:53 | -37.28034 | 159.08077 | 36395 ft | 456 kts | 294° |
| 2026-04-26 00:53 | -37.25468 | 159.00849 | 36397 ft | 457 kts | 294° |
| 2026-04-26 00:54 | -37.22873 | 158.93569 | 36401 ft | 457 kts | 294° |
| 2026-04-26 00:54 | -37.20280 | 158.86292 | 36405 ft | 457 kts | 294° |
| 2026-04-26 00:55 | -37.17688 | 158.79016 | 36401 ft | 457 kts | 294° |
| 2026-04-26 00:55 | -37.15083 | 158.71747 | 36394 ft | 457 kts | 294° |
| 2026-04-26 00:56 | -37.12465 | 158.64478 | 36395 ft | 458 kts | 294° |
| 2026-04-26 00:56 | -37.09840 | 158.57197 | 36396 ft | 459 kts | 294° |
| 2026-04-26 00:57 | -37.07215 | 158.49910 | 36398 ft | 459 kts | 294° |
| 2026-04-26 00:57 | -37.04588 | 158.42624 | 36400 ft | 459 kts | 294° |
| 2026-04-26 00:58 | -37.01953 | 158.35343 | 36399 ft | 459 kts | 294° |
| 2026-04-26 00:58 | -36.99321 | 158.28128 | 36399 ft | 459 kts | 295° |
| 2026-04-26 00:59 | -36.96661 | 158.20867 | 36405 ft | 459 kts | 295° |
| 2026-04-26 00:59 | -36.94007 | 158.13605 | 36400 ft | 459 kts | 294° |
| 2026-04-26 01:00 | -36.91355 | 158.06343 | 36397 ft | 459 kts | 295° |
| 2026-04-26 01:00 | -36.88694 | 157.99086 | 36398 ft | 460 kts | 295° |
| 2026-04-26 01:01 | -36.86025 | 157.91833 | 36400 ft | 459 kts | 295° |
| 2026-04-26 01:01 | -36.83348 | 157.84592 | 36396 ft | 460 kts | 295° |
| 2026-04-26 01:02 | -36.80668 | 157.77347 | 36395 ft | 460 kts | 295° |
| 2026-04-26 01:02 | -36.77985 | 157.70103 | 36391 ft | 460 kts | 295° |
| 2026-04-26 01:03 | -36.75299 | 157.62866 | 36388 ft | 460 kts | 295° |
| 2026-04-26 01:03 | -36.72601 | 157.55636 | 36388 ft | 460 kts | 295° |
| 2026-04-26 01:04 | -36.69904 | 157.48414 | 36388 ft | 460 kts | 295° |
| 2026-04-26 01:04 | -36.67214 | 157.41189 | 36385 ft | 460 kts | 295° |
| 2026-04-26 01:05 | -36.64527 | 157.34015 | 36375 ft | 460 kts | 295° |
| 2026-04-26 01:05 | -36.61809 | 157.26794 | 36370 ft | 461 kts | 295° |
| 2026-04-26 01:06 | -36.59085 | 157.19570 | 36373 ft | 461 kts | 295° |
| 2026-04-26 01:06 | -36.56361 | 157.12342 | 36371 ft | 462 kts | 295° |
| 2026-04-26 01:07 | -36.53626 | 157.05108 | 36375 ft | 462 kts | 295° |
| 2026-04-26 01:07 | -36.50886 | 156.97887 | 36374 ft | 462 kts | 295° |
| 2026-04-26 01:08 | -36.48137 | 156.90663 | 36376 ft | 462 kts | 295° |
| 2026-04-26 01:08 | -36.45383 | 156.83452 | 36375 ft | 462 kts | 295° |
| 2026-04-26 01:09 | -36.42629 | 156.76237 | 36378 ft | 462 kts | 295° |
| 2026-04-26 01:09 | -36.39879 | 156.69023 | 36381 ft | 462 kts | 295° |
| 2026-04-26 01:10 | -36.37121 | 156.61818 | 36385 ft | 462 kts | 296° |
| 2026-04-26 01:10 | -36.34347 | 156.54620 | 36383 ft | 462 kts | 295° |
| 2026-04-26 01:11 | -36.31572 | 156.47429 | 36383 ft | 462 kts | 296° |
| 2026-04-26 01:11 | -36.28795 | 156.40245 | 36383 ft | 462 kts | 296° |
| 2026-04-26 01:12 | -36.26036 | 156.33120 | 36382 ft | 462 kts | 296° |
| 2026-04-26 01:12 | -36.23257 | 156.25947 | 36381 ft | 462 kts | 296° |
| 2026-04-26 01:13 | -36.20470 | 156.18785 | 36383 ft | 462 kts | 296° |
| 2026-04-26 01:13 | -36.17678 | 156.11628 | 36384 ft | 462 kts | 296° |
| 2026-04-26 01:14 | -36.14881 | 156.04472 | 36370 ft | 462 kts | 296° |
| 2026-04-26 01:14 | -36.12080 | 155.97313 | 36363 ft | 463 kts | 296° |
| 2026-04-26 01:15 | -36.09270 | 155.90152 | 36365 ft | 463 kts | 296° |
| 2026-04-26 01:15 | -36.06459 | 155.82994 | 36366 ft | 463 kts | 296° |
| 2026-04-26 01:16 | -36.03642 | 155.75840 | 36365 ft | 463 kts | 296° |
| 2026-04-26 01:16 | -36.00818 | 155.68698 | 36365 ft | 463 kts | 296° |
| 2026-04-26 01:17 | -35.97993 | 155.61561 | 36368 ft | 463 kts | 296° |
| 2026-04-26 01:17 | -35.95166 | 155.54430 | 36370 ft | 462 kts | 296° |
| 2026-04-26 01:18 | -35.92335 | 155.47310 | 36369 ft | 462 kts | 296° |
| 2026-04-26 01:18 | -35.89503 | 155.40196 | 36367 ft | 462 kts | 296° |
| 2026-04-26 01:19 | -35.86662 | 155.33096 | 36364 ft | 462 kts | 296° |
| 2026-04-26 01:19 | -35.83811 | 155.25993 | 36365 ft | 462 kts | 296° |
| 2026-04-26 01:20 | -35.80969 | 155.18895 | 36361 ft | 462 kts | 296° |
| 2026-04-26 01:20 | -35.78122 | 155.11802 | 36363 ft | 462 kts | 296° |
| 2026-04-26 01:21 | -35.75288 | 155.04767 | 36358 ft | 461 kts | 296° |
| 2026-04-26 01:21 | -35.72433 | 154.97696 | 36355 ft | 461 kts | 296° |
| 2026-04-26 01:22 | -35.69575 | 154.90626 | 36354 ft | 461 kts | 296° |
| 2026-04-26 01:22 | -35.66717 | 154.83566 | 36351 ft | 461 kts | 296° |
| 2026-04-26 01:23 | -35.63850 | 154.76514 | 36351 ft | 461 kts | 296° |
| 2026-04-26 01:23 | -35.60891 | 154.69531 | 36347 ft | 460 kts | 303° |
| 2026-04-26 01:24 | -35.56913 | 154.63391 | 36342 ft | 460 kts | 311° |
| 2026-04-26 01:24 | -35.52750 | 154.57429 | 36339 ft | 460 kts | 311° |
| 2026-04-26 01:25 | -35.48585 | 154.51470 | 36337 ft | 460 kts | 311° |
| 2026-04-26 01:25 | -35.44411 | 154.45518 | 36339 ft | 460 kts | 311° |
| 2026-04-26 01:26 | -35.40237 | 154.39567 | 36339 ft | 460 kts | 311° |
| 2026-04-26 01:26 | -35.36061 | 154.33619 | 36338 ft | 460 kts | 311° |
| 2026-04-26 01:27 | -35.31880 | 154.27694 | 36340 ft | 459 kts | 311° |
| 2026-04-26 01:27 | -35.27705 | 154.21770 | 36334 ft | 460 kts | 311° |
| 2026-04-26 01:28 | -35.23542 | 154.15892 | 36337 ft | 460 kts | 311° |
| 2026-04-26 01:29 | -35.15334 | 154.04306 | 36329 ft | 460 kts | 311° |
| 2026-04-26 01:29 | -35.11175 | 153.98439 | 36333 ft | 460 kts | 311° |
| 2026-04-26 01:30 | -35.06990 | 153.92545 | 36335 ft | 459 kts | 311° |
| 2026-04-26 01:30 | -35.02795 | 153.86661 | 36335 ft | 459 kts | 311° |
| 2026-04-26 01:31 | -34.98592 | 153.80792 | 36332 ft | 459 kts | 311° |
| 2026-04-26 01:31 | -34.94388 | 153.74919 | 36326 ft | 460 kts | 311° |
| 2026-04-26 01:32 | -34.90185 | 153.69051 | 36321 ft | 460 kts | 311° |
| 2026-04-26 01:32 | -34.85978 | 153.63190 | 36328 ft | 459 kts | 311° |
| 2026-04-26 01:33 | -34.81771 | 153.57335 | 36326 ft | 459 kts | 311° |
| 2026-04-26 01:33 | -34.77562 | 153.51489 | 36326 ft | 459 kts | 311° |
| 2026-04-26 01:34 | -34.73351 | 153.45649 | 36327 ft | 459 kts | 311° |
| 2026-04-26 01:34 | -34.69144 | 153.39816 | 36324 ft | 459 kts | 311° |
| 2026-04-26 01:35 | -34.64934 | 153.33992 | 36323 ft | 458 kts | 311° |
| 2026-04-26 01:35 | -34.60749 | 153.28223 | 36321 ft | 458 kts | 311° |
| 2026-04-26 01:36 | -34.56532 | 153.22415 | 36313 ft | 459 kts | 311° |
| 2026-04-26 01:37 | -34.50203 | 153.13715 | 36312 ft | 459 kts | 311° |
| 2026-04-26 01:37 | -34.45979 | 153.07927 | 36316 ft | 458 kts | 311° |
| 2026-04-26 01:38 | -34.41757 | 153.02158 | 36232 ft | 458 kts | 311° |
| 2026-04-26 01:38 | -34.39628 | 152.99243 | 35369 ft | 465 kts | 311° |
| 2026-04-26 01:38 | -34.37497 | 152.96322 | 34832 ft | 461 kts | 311° |
| 2026-04-26 01:38 | -34.35374 | 152.93417 | 34185 ft | 460 kts | 311° |
| 2026-04-26 01:39 | -34.33256 | 152.90522 | 33388 ft | 460 kts | 311° |
| 2026-04-26 01:39 | -34.31130 | 152.87625 | 32549 ft | 461 kts | 311° |
| 2026-04-26 01:39 | -34.28999 | 152.84725 | 31677 ft | 463 kts | 311° |
| 2026-04-26 01:39 | -34.26858 | 152.81817 | 30985 ft | 461 kts | 312° |
| 2026-04-26 01:40 | -34.24738 | 152.78940 | 30442 ft | 455 kts | 312° |
| 2026-04-26 01:40 | -34.22644 | 152.76097 | 29781 ft | 451 kts | 312° |
| 2026-04-26 01:40 | -34.20569 | 152.73282 | 29124 ft | 446 kts | 312° |
| 2026-04-26 01:40 | -34.18512 | 152.70496 | 28500 ft | 442 kts | 312° |
| 2026-04-26 01:41 | -34.16477 | 152.67736 | 27888 ft | 438 kts | 312° |
| 2026-04-26 01:41 | -34.14460 | 152.65001 | 27272 ft | 434 kts | 312° |
| 2026-04-26 01:41 | -34.12459 | 152.62295 | 26691 ft | 430 kts | 312° |
| 2026-04-26 01:41 | -34.10544 | 152.59543 | 26110 ft | 427 kts | 306° |
| 2026-04-26 01:42 | -34.09048 | 152.56471 | 25525 ft | 424 kts | 295° |
| 2026-04-26 01:42 | -34.08052 | 152.53145 | 24933 ft | 421 kts | 285° |
| 2026-04-26 01:42 | -34.07533 | 152.49637 | 23903 ft | 430 kts | 277° |
| 2026-04-26 01:42 | -34.07194 | 152.46011 | 22664 ft | 440 kts | 276° |
| 2026-04-26 01:43 | -34.06856 | 152.42317 | 21649 ft | 445 kts | 276° |
| 2026-04-26 01:43 | -34.06522 | 152.38642 | 21168 ft | 436 kts | 276° |
| 2026-04-26 01:43 | -34.06197 | 152.35085 | 20655 ft | 429 kts | 276° |
| 2026-04-26 01:43 | -34.05866 | 152.31537 | 20126 ft | 423 kts | 276° |
| 2026-04-26 01:44 | -34.05536 | 152.28037 | 19594 ft | 418 kts | 276° |
| 2026-04-26 01:44 | -34.05204 | 152.24577 | 19062 ft | 413 kts | 276° |
| 2026-04-26 01:44 | -34.04875 | 152.21152 | 18505 ft | 410 kts | 277° |
| 2026-04-26 01:44 | -34.04548 | 152.17761 | 17920 ft | 405 kts | 276° |
| 2026-04-26 01:45 | -34.04225 | 152.14404 | 17380 ft | 401 kts | 277° |
| 2026-04-26 01:45 | -34.03901 | 152.11082 | 16830 ft | 397 kts | 277° |
| 2026-04-26 01:45 | -34.03578 | 152.07789 | 16297 ft | 394 kts | 277° |
| 2026-04-26 01:45 | -34.03258 | 152.04523 | 15767 ft | 391 kts | 277° |
| 2026-04-26 01:46 | -34.02935 | 152.01286 | 15244 ft | 387 kts | 277° |
| 2026-04-26 01:46 | -34.02614 | 151.98076 | 14706 ft | 385 kts | 277° |
| 2026-04-26 01:46 | -34.02290 | 151.94885 | 14183 ft | 382 kts | 277° |
| 2026-04-26 01:46 | -34.01967 | 151.91722 | 13610 ft | 379 kts | 277° |
| 2026-04-26 01:47 | -34.01650 | 151.88586 | 13077 ft | 374 kts | 277° |
| 2026-04-26 01:47 | -34.01338 | 151.85501 | 12544 ft | 368 kts | 277° |
| 2026-04-26 01:47 | -34.01032 | 151.82463 | 12008 ft | 362 kts | 277° |
| 2026-04-26 01:47 | -34.00730 | 151.79481 | 11473 ft | 356 kts | 277° |
| 2026-04-26 01:48 | -34.00429 | 151.76538 | 10942 ft | 351 kts | 277° |
| 2026-04-26 01:48 | -34.00131 | 151.73663 | 10757 ft | 342 kts | 277° |
| 2026-04-26 01:48 | -33.99837 | 151.70831 | 10526 ft | 339 kts | 277° |
| 2026-04-26 01:48 | -33.99547 | 151.68026 | 10213 ft | 336 kts | 277° |
| 2026-04-26 01:49 | -33.99257 | 151.65230 | 10046 ft | 336 kts | 277° |
| 2026-04-26 01:49 | -33.98966 | 151.62431 | 9764 ft | 338 kts | 277° |
| 2026-04-26 01:49 | -33.98673 | 151.59635 | 9260 ft | 335 kts | 277° |
| 2026-04-26 01:49 | -33.98381 | 151.56858 | 8831 ft | 333 kts | 277° |
| 2026-04-26 01:50 | -33.98095 | 151.54089 | 8516 ft | 332 kts | 277° |
| 2026-04-26 01:50 | -33.97813 | 151.51362 | 8183 ft | 324 kts | 277° |
| 2026-04-26 01:50 | -33.97535 | 151.48698 | 7864 ft | 317 kts | 277° |
| 2026-04-26 01:50 | -33.97263 | 151.46092 | 7547 ft | 311 kts | 277° |
| 2026-04-26 01:51 | -33.96995 | 151.43535 | 7236 ft | 304 kts | 277° |
| 2026-04-26 01:51 | -33.96949 | 151.41033 | 7014 ft | 295 kts | 260° |
| 2026-04-26 01:51 | -33.97659 | 151.38796 | 6997 ft | 283 kts | 235° |
| 2026-04-26 01:51 | -33.99007 | 151.37101 | 7006 ft | 282 kts | 214° |
| 2026-04-26 01:52 | -34.00774 | 151.36096 | 7005 ft | 282 kts | 199° |
| 2026-04-26 01:52 | -34.02646 | 151.35307 | 6447 ft | 290 kts | 196° |
| 2026-04-26 01:52 | -34.04665 | 151.34932 | 5661 ft | 299 kts | 179° |
| 2026-04-26 01:52 | -34.06707 | 151.35260 | 5127 ft | 300 kts | 166° |
| 2026-04-26 01:53 | -34.08718 | 151.35808 | 4791 ft | 293 kts | 166° |
| 2026-04-26 01:53 | -34.10666 | 151.36318 | 4647 ft | 279 kts | 167° |
| 2026-04-26 01:53 | -34.12543 | 151.36802 | 4584 ft | 275 kts | 167° |
| 2026-04-26 01:53 | -34.14410 | 151.37276 | 4341 ft | 272 kts | 169° |
| 2026-04-26 01:54 | -34.16273 | 151.37163 | 4278 ft | 268 kts | 201° |
| 2026-04-26 01:54 | -34.17681 | 151.35861 | 4227 ft | 250 kts | 239° |
| 2026-04-26 01:54 | -34.18103 | 151.34587 | 4189 ft | 238 kts | 261° |
| 2026-04-26 01:54 | -34.18244 | 151.32671 | 4145 ft | 229 kts | 273° |
| 2026-04-26 01:55 | -34.18206 | 151.30767 | 4092 ft | 226 kts | 277° |
| 2026-04-26 01:55 | -34.17710 | 151.29019 | 4040 ft | 220 kts | 308° |
| 2026-04-26 01:55 | -34.16747 | 151.27598 | 4000 ft | 219 kts | 314° |
| 2026-04-26 01:55 | -34.15737 | 151.26269 | 3948 ft | 209 kts | 315° |
| 2026-04-26 01:56 | -34.14773 | 151.25015 | 3901 ft | 198 kts | 315° |
| 2026-04-26 01:56 | -34.13780 | 151.23943 | 3847 ft | 187 kts | 331° |
| 2026-04-26 01:56 | -34.12588 | 151.23415 | 3801 ft | 183 kts | 349° |
| 2026-04-26 01:56 | -34.11344 | 151.23094 | 3739 ft | 183 kts | 349° |
| 2026-04-26 01:57 | -34.10097 | 151.22776 | 3639 ft | 184 kts | 348° |
| 2026-04-26 01:57 | -34.08791 | 151.22466 | 3104 ft | 200 kts | 349° |
| 2026-04-26 01:57 | -34.07369 | 151.22154 | 2447 ft | 212 kts | 349° |
| 2026-04-26 01:57 | -34.05934 | 151.21861 | 1932 ft | 201 kts | 350° |
| 2026-04-26 01:58 | -34.04627 | 151.21558 | 1866 ft | 186 kts | 346° |
| 2026-04-26 01:58 | -34.03395 | 151.21150 | 1565 ft | 181 kts | 344° |
| 2026-04-26 01:58 | -34.02209 | 151.20681 | 1370 ft | 178 kts | 343° |
| 2026-04-26 01:58 | -34.01015 | 151.20285 | 1164 ft | 178 kts | 347° |
| 2026-04-26 01:59 | -33.99808 | 151.19979 | 681 ft | 177 kts | 351° |
| 2026-04-26 01:59 | -33.98599 | 151.19747 | 370 ft | 176 kts | 351° |
| 2026-04-26 01:59 | -33.97406 | 151.19454 | 101 ft | 173 kts | 348° |
| 2026-04-26 01:59 | -33.96233 | 151.19156 | 33 ft | 168 kts | 349° |
| 2026-04-26 02:00 | -33.95399 | 151.18951 | 22 ft | 54 kts | 348° |
| 2026-04-26 02:00 | -33.95152 | 151.18877 | 22 ft | 24 kts | 347° |
| 2026-04-26 02:00 | -33.95061 | 151.18791 | 23 ft | 12 kts | 275° |
| 2026-04-26 02:00 | -33.95061 | 151.18773 | 23 ft | 8 kts | 270° |
| 2026-04-26 02:01 | -33.95072 | 151.18690 | 24 ft | 1 kts | 258° |
| 2026-04-26 02:01 | -33.95077 | 151.18664 | 24 ft | 7 kts | 258° |
| 2026-04-26 02:01 | -33.95098 | 151.18535 | 27 ft | 27 kts | 260° |
| 2026-04-26 02:01 | -33.95112 | 151.18508 | 27 ft | 2 kts | 168° |
| 2026-04-26 02:02 | -33.95154 | 151.18588 | 29 ft | 12 kts | 133° |
| 2026-04-26 02:02 | -33.95176 | 151.18614 | 28 ft | 2 kts | 135° |
| 2026-04-26 02:02 | -33.95250 | 151.18701 | 31 ft | 10 kts | 133° |
| 2026-04-26 02:02 | -33.95251 | 151.18671 | 32 ft | 14 kts | 352° |
| 2026-04-26 02:03 | -33.95159 | 151.18591 | 28 ft | 14 kts | 314° |
| 2026-04-26 02:03 | -33.95115 | 151.18470 | 27 ft | 16 kts | 266° |
| 2026-04-26 02:03 | -33.95140 | 151.18318 | 26 ft | 19 kts | 262° |
| 2026-04-26 02:03 | -33.95168 | 151.18153 | 27 ft | 21 kts | 259° |
| 2026-04-26 02:04 | -33.95183 | 151.18003 | 25 ft | 11 kts | 275° |
| 2026-04-26 02:04 | -33.95167 | 151.17968 | 30 ft | 3 kts | 319° |
| 2026-04-26 02:04 | -33.95059 | 151.17929 | 27 ft | 26 kts | 348° |
| 2026-04-26 02:04 | -33.94880 | 151.17887 | 21 ft | 28 kts | 348° |
| 2026-04-26 02:05 | -33.94729 | 151.17850 | 24 ft | 22 kts | 347° |
| 2026-04-26 02:05 | -33.94575 | 151.17806 | 26 ft | 23 kts | 347° |
| 2026-04-26 02:05 | -33.94409 | 151.17765 | 23 ft | 25 kts | 349° |
| 2026-04-26 02:05 | -33.94264 | 151.17718 | 23 ft | 17 kts | 343° |
| 2026-04-26 02:06 | -33.94147 | 151.17676 | 22 ft | 13 kts | 345° |
| 2026-04-26 02:06 | -33.94139 | 151.17673 | 22 ft | 2 kts | 345° |
| 2026-04-26 02:06 | -33.94109 | 151.17664 | 22 ft | 8 kts | 345° |
| 2026-04-26 02:06 | -33.94027 | 151.17639 | 21 ft | 16 kts | 347° |
| 2026-04-26 02:07 | -33.93919 | 151.17604 | 21 ft | 10 kts | 329° |
| 2026-04-26 02:07 | -33.93893 | 151.17587 | 19 ft | 1 kts | 338° |
| 2026-04-26 02:07 | -33.93864 | 151.17592 | 19 ft | 8 kts | 10° |
| 2026-04-26 02:07 | -33.93828 | 151.17585 | 18 ft | 4 kts | 317° |
| 2026-04-26 02:08 | -33.93849 | 151.17547 | 19 ft | 9 kts | 177° |
| 2026-04-26 02:08 | -33.93911 | 151.17491 | 21 ft | 16 kts | 250° |
| 2026-04-26 02:08 | -33.93945 | 151.17327 | 18 ft | 19 kts | 256° |
| 2026-04-26 02:08 | -33.93963 | 151.17254 | 19 ft | 0 kts | 252° |
| 2026-04-26 02:09 | -33.93968 | 151.17235 | 19 ft | 5 kts | 252° |
| 2026-04-26 02:09 | -33.93987 | 151.17165 | 21 ft | 12 kts | 255° |
| 2026-04-26 02:09 | -33.93947 | 151.17096 | 21 ft | 13 kts | 342° |
| 2026-04-26 02:10 | -33.93875 | 151.17071 | 21 ft | 6 kts | 346° |
| 2026-04-26 02:10 | -33.93861 | 151.17067 | 21 ft | 4 kts | 346° |
| 2026-04-26 02:10 | -33.93820 | 151.17052 | 21 ft | 0 kts | 326° |
| 2026-04-26 02:10 | -33.93813 | 151.17026 | 21 ft | 6 kts | 264° |
| 2026-04-26 02:11 | -33.93853 | 151.16980 | 21 ft | 8 kts | 233° |
| 2026-04-26 02:11 | -33.93860 | 151.16961 | 21 ft | 0 kts | 247° |
| 2026-04-26 02:11 | -33.93861 | 151.16959 | 21 ft | 0 kts | 247° |
| 2026-04-26 02:12 | -33.93867 | 151.16942 | 3 ft | 0 kts | 245° |